Time;durP1;ratioP1;P1;durP2;ratioP2;P2;SDS_P1;SDS_P2;PMS_P1;PMS_P2;Temp;Humidity;BMP_temperature;BMP_pressure;BME280_temperature;BME280_humidity;BME280_pressure;Samples;Min_cycle;Max_cycle;Signal;HPM_P1;HPM_P2
2023/06/24 00:01:36;;;;;;;8.68;3.17;;;13.30;99.90;;;;;;5093804;28;20034;-79
2023/06/24 00:04:02;;;;;;;5.70;2.72;;;13.30;99.90;;;;;;5106690;28;20016;-77
2023/06/24 00:06:27;;;;;;;4.35;3.08;;;13.20;99.90;;;;;;5115218;28;20044;-78
2023/06/24 00:09:00;;;;;;;4.80;3.60;;;13.20;99.90;;;;;;5108295;28;20023;-78
2023/06/24 00:11:32;;;;;;;5.28;3.03;;;13.20;99.90;;;;;;5126840;28;20079;-77
2023/06/24 00:13:59;;;;;;;4.00;2.60;;;13.30;99.90;;;;;;5127291;28;20024;-79
2023/06/24 00:16:28;;;;;;;3.55;3.15;;;13.30;99.90;;;;;;5128260;28;20027;-79
2023/06/24 00:19:00;;;;;;;6.50;2.70;;;13.30;99.90;;;;;;5115254;28;20015;-79
2023/06/24 00:21:30;;;;;;;4.78;2.92;;;13.30;99.90;;;;;;5078288;28;20683;-79
2023/06/24 00:24:01;;;;;;;7.38;3.00;;;13.20;99.90;;;;;;5112077;28;20020;-78
2023/06/24 00:26:26;;;;;;;5.93;3.03;;;13.20;99.90;;;;;;5113330;28;20028;-76
2023/06/24 00:28:52;;;;;;;5.00;3.55;;;13.10;99.90;;;;;;5093607;28;20031;-78
2023/06/24 00:31:19;;;;;;;3.95;2.90;;;13.00;99.90;;;;;;5112408;28;20035;-79
2023/06/24 00:33:45;;;;;;;6.57;3.80;;;12.90;99.90;;;;;;5113230;28;20449;-78
2023/06/24 00:36:11;;;;;;;3.97;3.30;;;12.90;99.90;;;;;;5095185;28;20360;-79
2023/06/24 00:38:39;;;;;;;5.68;3.60;;;12.80;99.90;;;;;;5079258;28;20047;-78
2023/06/24 00:41:05;;;;;;;7.03;3.50;;;12.80;99.90;;;;;;5091723;28;20024;-79
2023/06/24 00:43:31;;;;;;;5.65;3.65;;;12.80;99.90;;;;;;5073973;28;20075;-78
2023/06/24 00:45:57;;;;;;;4.13;3.22;;;12.90;99.90;;;;;;5075099;28;20063;-79
2023/06/24 00:48:24;;;;;;;7.32;3.85;;;13.00;99.90;;;;;;5093023;28;20024;-79
2023/06/24 00:50:50;;;;;;;3.85;3.47;;;13.00;99.90;;;;;;5093497;28;20153;-78
2023/06/24 00:53:24;;;;;;;4.43;3.42;;;13.00;99.90;;;;;;5093958;28;20720;-79
2023/06/24 00:55:50;;;;;;;5.90;4.45;;;12.80;99.90;;;;;;5075469;28;20391;-79
2023/06/24 00:58:20;;;;;;;7.38;4.15;;;12.80;99.90;;;;;;5093593;28;20023;-79
2023/06/24 01:00:48;;;;;;;5.25;3.78;;;12.80;99.90;;;;;;5097806;28;20016;-79
2023/06/24 01:03:14;;;;;;;6.13;3.75;;;12.80;99.90;;;;;;5096097;28;20031;-79
2023/06/24 01:05:45;;;;;;;4.95;3.30;;;12.70;99.90;;;;;;5094716;28;20061;-78
2023/06/24 01:08:15;;;;;;;7.25;3.35;;;12.70;99.90;;;;;;5112306;28;20464;-79
2023/06/24 01:10:44;;;;;;;11.65;5.05;;;12.70;99.90;;;;;;5093705;28;20027;-79
2023/06/24 01:13:09;;;;;;;4.50;3.05;;;12.60;99.90;;;;;;5111099;28;20227;-78
2023/06/24 01:15:36;;;;;;;6.43;3.40;;;12.60;99.90;;;;;;5111985;28;20263;-78
2023/06/24 01:18:13;;;;;;;5.28;4.05;;;12.60;99.90;;;;;;5112176;28;20059;-78
2023/06/24 01:20:49;;;;;;;4.10;3.40;;;12.60;99.90;;;;;;5111528;28;20035;-78
2023/06/24 01:23:39;;;;;;;4.30;3.60;;;12.60;99.90;;;;;;5112329;28;20029;-78
2023/06/24 01:26:13;;;;;;;5.13;3.42;;;12.60;99.90;;;;;;5111818;28;20028;-78
2023/06/24 01:28:59;;;;;;;6.65;4.43;;;12.60;99.90;;;;;;5093447;28;20035;-78
2023/06/24 01:31:44;;;;;;;7.00;3.92;;;12.50;99.90;;;;;;5111452;28;20008;-78
2023/06/24 01:34:24;;;;;;;7.22;4.65;;;12.40;99.90;;;;;;5112789;28;20036;-78
2023/06/24 01:37:13;;;;;;;13.48;4.25;;;12.40;99.90;;;;;;5111803;28;20023;-78
2023/06/24 01:39:52;;;;;;;4.00;3.60;;;12.30;99.90;;;;;;5112774;28;20159;-78
2023/06/24 01:42:21;;;;;;;5.78;3.78;;;12.30;99.90;;;;;;5112506;28;20020;-78
2023/06/24 01:44:49;;;;;;;7.23;3.57;;;12.30;99.90;;;;;;5085650;28;20031;-78
2023/06/24 01:47:26;;;;;;;5.32;3.92;;;12.30;99.90;;;;;;5090778;28;20035;-78
2023/06/24 01:49:54;;;;;;;3.92;3.42;;;12.30;99.90;;;;;;5072461;28;20020;-78
2023/06/24 01:52:26;;;;;;;4.88;4.03;;;12.40;99.90;;;;;;5091264;28;20036;-78
2023/06/24 01:54:54;;;;;;;4.75;3.65;;;12.30;99.90;;;;;;5092178;28;20035;-78
2023/06/24 01:57:22;;;;;;;9.27;4.18;;;12.30;99.90;;;;;;5073294;28;20516;-78
2023/06/24 01:59:49;;;;;;;4.82;4.32;;;12.30;99.90;;;;;;5070621;28;20473;-78
2023/06/24 02:02:15;;;;;;;4.53;3.80;;;12.20;99.90;;;;;;5105342;28;20023;-78
2023/06/24 02:04:43;;;;;;;5.90;3.83;;;12.20;99.90;;;;;;5091689;28;20155;-78
2023/06/24 02:07:09;;;;;;;5.13;3.83;;;12.30;99.90;;;;;;5110354;28;20138;-78
2023/06/24 02:09:36;;;;;;;4.63;3.53;;;12.20;99.90;;;;;;5112411;28;20016;-78
2023/06/24 02:12:03;;;;;;;5.32;3.88;;;12.20;99.90;;;;;;5111530;28;20032;-78
2023/06/24 02:14:31;;;;;;;5.30;4.05;;;12.20;99.90;;;;;;5092681;28;20023;-78
2023/06/24 02:16:59;;;;;;;4.43;3.42;;;12.20;99.90;;;;;;5109849;28;20020;-78
2023/06/24 02:19:29;;;;;;;5.25;3.88;;;12.20;99.90;;;;;;5110064;28;20254;-79
2023/06/24 02:21:56;;;;;;;4.35;3.75;;;12.20;99.90;;;;;;5090424;28;20148;-78
2023/06/24 02:24:23;;;;;;;4.32;3.63;;;12.20;99.90;;;;;;5090740;28;20461;-78
2023/06/24 02:26:50;;;;;;;5.57;4.18;;;12.10;99.90;;;;;;5090635;28;20582;-78
2023/06/24 02:29:17;;;;;;;4.65;4.22;;;12.00;99.90;;;;;;5092491;28;20077;-78
2023/06/24 02:31:43;;;;;;;4.88;3.75;;;12.00;99.90;;;;;;5092361;28;20067;-78
2023/06/24 02:34:08;;;;;;;10.40;3.85;;;12.00;99.90;;;;;;5110106;28;20523;-78
2023/06/24 02:36:34;;;;;;;4.82;3.53;;;12.00;99.90;;;;;;5090980;28;20023;-78
2023/06/24 02:39:00;;;;;;;5.13;3.90;;;12.10;99.90;;;;;;5109721;28;20043;-78
2023/06/24 02:41:26;;;;;;;5.68;3.97;;;12.10;99.90;;;;;;5110584;28;20096;-78
2023/06/24 02:43:51;;;;;;;4.07;3.33;;;12.10;99.90;;;;;;5090308;28;20271;-78
2023/06/24 02:46:18;;;;;;;9.30;4.43;;;12.10;99.90;;;;;;5089663;28;20043;-77
2023/06/24 02:48:45;;;;;;;5.47;3.47;;;12.20;99.90;;;;;;5089907;28;20061;-78
2023/06/24 02:51:11;;;;;;;5.22;3.55;;;12.20;99.90;;;;;;5107990;28;20020;-78
2023/06/24 02:53:41;;;;;;;4.38;3.97;;;12.10;99.90;;;;;;5089432;28;20024;-76
2023/06/24 02:56:07;;;;;;;6.20;3.30;;;12.00;99.90;;;;;;5108366;28;20031;-78
2023/06/24 02:58:33;;;;;;;17.20;4.43;;;11.80;99.90;;;;;;5108422;28;20023;-77
2023/06/24 03:01:00;;;;;;;4.20;3.35;;;11.70;99.90;;;;;;5091802;28;20028;-77
2023/06/24 03:03:27;;;;;;;3.90;3.53;;;11.70;99.90;;;;;;5110134;28;20016;-77
2023/06/24 03:05:56;;;;;;;6.05;3.53;;;11.70;99.90;;;;;;5108491;28;20040;-78
2023/06/24 03:08:24;;;;;;;6.43;3.83;;;11.70;99.90;;;;;;5091715;28;20056;-78
2023/06/24 03:11:01;;;;;;;7.60;5.03;;;11.80;99.90;;;;;;5091124;28;20104;-78
2023/06/24 03:13:27;;;;;;;7.18;4.10;;;11.80;99.90;;;;;;5109537;28;20020;-78
2023/06/24 03:15:53;;;;;;;5.03;3.95;;;11.80;99.90;;;;;;5109652;28;20043;-78
2023/06/24 03:18:19;;;;;;;6.53;3.58;;;11.70;99.90;;;;;;5110536;28;20016;-78
2023/06/24 03:20:45;;;;;;;4.65;3.55;;;11.70;99.90;;;;;;5110598;28;20475;-78
2023/06/24 03:23:11;;;;;;;5.35;4.13;;;11.80;99.90;;;;;;5109735;28;20016;-78
2023/06/24 03:25:37;;;;;;;4.57;3.22;;;11.80;99.90;;;;;;5109343;28;20035;-78
2023/06/24 03:28:03;;;;;;;5.75;3.33;;;11.70;99.90;;;;;;5109630;28;20245;-79
2023/06/24 03:30:29;;;;;;;4.18;3.08;;;11.70;99.90;;;;;;5109499;28;20246;-78
2023/06/24 03:32:57;;;;;;;5.95;3.47;;;11.70;99.90;;;;;;5109196;28;20506;-78
2023/06/24 03:35:23;;;;;;;5.53;4.60;;;11.70;99.90;;;;;;5109295;28;20433;-78
2023/06/24 03:37:49;;;;;;;4.55;3.10;;;11.60;99.90;;;;;;5109338;28;20019;-78
2023/06/24 03:40:14;;;;;;;5.88;4.28;;;11.60;99.90;;;;;;5109604;28;20031;-78
2023/06/24 03:42:40;;;;;;;5.22;4.07;;;11.60;99.90;;;;;;5109957;28;20020;-78
2023/06/24 03:45:06;;;;;;;7.40;5.10;;;11.60;99.90;;;;;;5110296;28;20023;-78
2023/06/24 03:47:32;;;;;;;5.57;4.38;;;11.60;99.90;;;;;;5110535;28;20042;-78
2023/06/24 03:49:58;;;;;;;6.15;3.42;;;11.60;99.90;;;;;;5110375;28;20520;-78
2023/06/24 03:52:23;;;;;;;6.35;3.83;;;11.70;99.90;;;;;;5110579;28;20368;-77
2023/06/24 03:54:49;;;;;;;5.13;3.67;;;11.60;99.90;;;;;;5113809;28;20022;-78
2023/06/24 03:57:16;;;;;;;5.60;3.55;;;11.60;99.90;;;;;;5114285;28;20519;-78
2023/06/24 03:59:42;;;;;;;5.65;4.50;;;11.70;99.90;;;;;;5113526;28;20034;-77
2023/06/24 04:02:08;;;;;;;4.43;3.72;;;11.80;99.90;;;;;;5098153;28;20028;-78
2023/06/24 04:04:37;;;;;;;8.10;3.63;;;11.70;99.90;;;;;;5093724;28;20472;-78
2023/06/24 04:07:05;;;;;;;7.03;3.72;;;11.80;99.90;;;;;;5093945;28;20055;-78
2023/06/24 04:09:34;;;;;;;6.28;3.83;;;11.90;99.90;;;;;;5075065;28;20025;-78
2023/06/24 04:11:59;;;;;;;4.90;3.70;;;12.00;99.90;;;;;;5092730;28;20475;-78
2023/06/24 04:14:25;;;;;;;5.38;3.70;;;12.00;99.90;;;;;;5094009;28;20032;-78
2023/06/24 04:16:51;;;;;;;8.07;3.90;;;12.10;99.90;;;;;;5076508;28;20024;-79
2023/06/24 04:19:16;;;;;;;6.68;4.15;;;12.20;99.90;;;;;;5076576;28;20476;-77
2023/06/24 04:21:42;;;;;;;4.55;4.05;;;12.30;99.90;;;;;;5077019;28;20480;-78
2023/06/24 04:24:08;;;;;;;8.60;3.58;;;12.40;99.90;;;;;;5095216;28;20042;-78
2023/06/24 04:26:33;;;;;;;4.85;4.03;;;12.50;99.90;;;;;;5094570;28;20082;-78
2023/06/24 04:28:59;;;;;;;6.13;3.53;;;12.50;99.90;;;;;;5075983;28;20047;-78
2023/06/24 04:31:25;;;;;;;5.43;4.47;;;12.50;99.90;;;;;;5075903;28;20491;-78
2023/06/24 04:33:51;;;;;;;7.03;4.18;;;12.60;99.90;;;;;;5076336;28;20024;-78
2023/06/24 04:36:17;;;;;;;7.38;4.70;;;12.70;99.90;;;;;;5095808;28;20106;-78
2023/06/24 04:38:42;;;;;;;5.20;4.10;;;12.70;99.90;;;;;;5094454;28;20027;-78
2023/06/24 04:41:08;;;;;;;4.70;3.65;;;12.90;99.90;;;;;;5094020;28;20047;-78
2023/06/24 04:43:35;;;;;;;7.57;5.25;;;13.10;99.90;;;;;;5092372;28;20017;-78
2023/06/24 04:46:01;;;;;;;4.70;4.28;;;13.40;99.90;;;;;;5090897;28;20024;-78
2023/06/24 04:48:27;;;;;;;4.65;3.67;;;13.70;99.90;;;;;;5072435;28;20042;-78
2023/06/24 04:50:54;;;;;;;4.53;3.60;;;14.00;99.90;;;;;;5090800;28;20027;-78
2023/06/24 04:53:20;;;;;;;6.57;3.95;;;14.20;99.90;;;;;;5091111;28;20488;-78
2023/06/24 04:55:46;;;;;;;3.85;3.42;;;14.60;99.90;;;;;;5091066;28;20137;-78
2023/06/24 04:58:12;;;;;;;3.50;2.92;;;15.40;99.90;;;;;;5090375;28;20111;-78
2023/06/24 05:00:37;;;;;;;3.38;3.05;;;16.00;99.90;;;;;;5074864;28;20412;-78
2023/06/24 05:03:06;;;;;;;4.05;3.05;;;16.10;99.90;;;;;;5111208;28;20378;-77
2023/06/24 05:05:32;;;;;;;4.22;2.83;;;15.80;99.90;;;;;;5110483;28;20028;-78
2023/06/24 05:07:57;;;;;;;4.05;3.08;;;15.80;99.90;;;;;;5110891;28;20054;-78
2023/06/24 05:10:23;;;;;;;3.83;3.15;;;15.60;99.90;;;;;;5110888;28;20031;-78
2023/06/24 05:12:49;;;;;;;5.88;4.20;;;15.40;99.90;;;;;;5110467;28;20096;-77
2023/06/24 05:15:14;;;;;;;4.18;3.05;;;15.20;99.90;;;;;;5110937;28;20507;-78
2023/06/24 05:17:40;;;;;;;5.03;4.00;;;15.20;99.90;;;;;;5110707;28;20024;-78
2023/06/24 05:20:06;;;;;;;5.05;3.80;;;15.10;99.90;;;;;;5111097;28;20475;-77
2023/06/24 05:22:32;;;;;;;4.93;3.70;;;15.20;99.90;;;;;;5110797;28;20051;-78
2023/06/24 05:24:58;;;;;;;9.45;4.65;;;15.40;99.90;;;;;;5110477;28;20066;-77
2023/06/24 05:27:23;;;;;;;6.25;3.85;;;15.40;99.90;;;;;;5110274;28;20446;-78
2023/06/24 05:29:49;;;;;;;5.13;3.20;;;15.40;99.90;;;;;;5110321;28;20568;-78
2023/06/24 05:32:17;;;;;;;5.90;4.10;;;15.30;99.90;;;;;;5110525;28;20116;-78
2023/06/24 05:34:43;;;;;;;5.43;4.25;;;15.50;99.90;;;;;;5110149;28;20068;-79
2023/06/24 05:37:08;;;;;;;4.57;3.80;;;15.50;99.90;;;;;;5110375;28;20031;-77
2023/06/24 05:39:34;;;;;;;5.55;4.00;;;15.60;99.90;;;;;;5110447;28;20020;-78
2023/06/24 05:41:59;;;;;;;5.25;3.92;;;15.60;99.90;;;;;;5109621;28;20032;-78
2023/06/24 05:44:25;;;;;;;4.97;4.38;;;15.70;99.90;;;;;;5091913;28;20106;-78
2023/06/24 05:46:51;;;;;;;5.57;4.38;;;15.80;99.90;;;;;;5110262;28;20118;-78
2023/06/24 05:49:16;;;;;;;5.07;4.28;;;16.00;99.90;;;;;;5110086;28;20352;-78
2023/06/24 05:51:42;;;;;;;5.60;4.07;;;16.10;99.90;;;;;;5110064;28;20448;-78
2023/06/24 05:54:08;;;;;;;6.80;4.13;;;16.20;99.90;;;;;;5109887;28;20020;-78
2023/06/24 05:56:33;;;;;;;5.55;4.45;;;16.30;99.90;;;;;;5110029;28;20069;-78
2023/06/24 05:59:00;;;;;;;7.03;4.20;;;16.40;99.90;;;;;;5109534;28;20053;-78
2023/06/24 06:01:25;;;;;;;4.05;3.65;;;16.60;99.90;;;;;;5100533;28;20104;-79
2023/06/24 06:03:51;;;;;;;4.97;3.38;;;16.60;99.90;;;;;;5089195;28;20496;-78
2023/06/24 06:06:17;;;;;;;5.15;3.72;;;16.80;99.90;;;;;;5088993;28;20106;-79
2023/06/24 06:08:42;;;;;;;6.30;4.18;;;17.50;99.90;;;;;;5089194;28;20024;-78
2023/06/24 06:11:08;;;;;;;8.38;4.55;;;18.10;99.90;;;;;;5071292;28;20110;-78
2023/06/24 06:13:34;;;;;;;6.75;4.32;;;18.40;99.90;;;;;;5089054;28;20093;-78
2023/06/24 06:15:59;;;;;;;7.20;4.53;;;18.50;99.90;;;;;;5088335;28;20047;-78
2023/06/24 06:18:25;;;;;;;7.13;4.25;;;18.50;99.90;;;;;;5088543;28;20140;-78
2023/06/24 06:20:50;;;;;;;5.75;4.50;;;18.70;99.90;;;;;;5088608;28;20031;-81
2023/06/24 06:23:16;;;;;;;7.07;5.28;;;19.10;99.90;;;;;;5088810;28;20594;-79
2023/06/24 06:25:42;;;;;;;5.55;4.68;;;19.00;99.90;;;;;;5088733;28;20421;-79
2023/06/24 06:28:08;;;;;;;6.80;4.93;;;18.90;99.90;;;;;;5088838;28;20028;-78
2023/06/24 06:30:34;;;;;;;6.50;4.35;;;18.70;99.90;;;;;;5070290;28;20415;-74
2023/06/24 06:32:59;;;;;;;6.78;4.88;;;18.60;99.90;;;;;;5105686;28;20035;-75
2023/06/24 06:35:25;;;;;;;5.05;4.40;;;18.70;99.90;;;;;;5108647;28;20646;-74
2023/06/24 06:37:54;;;;;;;5.60;4.55;;;18.70;99.90;;;;;;5109084;28;20596;-74
2023/06/24 06:40:22;;;;;;;5.50;4.60;;;19.00;99.90;;;;;;5109265;28;20031;-76
2023/06/24 06:42:48;;;;;;;6.05;4.38;;;19.40;99.90;;;;;;5105822;28;20498;-75
2023/06/24 06:45:14;;;;;;;7.63;4.82;;;20.40;99.90;;;;;;5109172;28;20031;-75
2023/06/24 06:47:40;;;;;;;5.50;4.32;;;21.40;99.90;;;;;;5100206;28;20032;-76
2023/06/24 06:50:06;;;;;;;9.00;4.05;;;22.90;99.90;;;;;;5094992;28;20124;-74
2023/06/24 06:52:32;;;;;;;4.53;4.07;;;23.50;97.90;;;;;;5088280;28;20062;-75
2023/06/24 06:54:58;;;;;;;5.43;3.97;;;24.10;96.70;;;;;;5088229;28;20412;-75
2023/06/24 06:57:23;;;;;;;5.07;3.65;;;25.10;93.40;;;;;;5088443;28;20405;-75
2023/06/24 06:59:52;;;;;;;3.83;3.35;;;26.30;90.20;;;;;;5088623;28;20457;-75
2023/06/24 07:02:18;;;;;;;6.10;3.67;;;26.40;85.90;;;;;;5105432;28;20107;-71
2023/06/24 07:04:44;;;;;;;3.92;3.47;;;26.90;83.10;;;;;;5108375;28;20019;-74
2023/06/24 07:07:10;;;;;;;3.65;2.95;;;27.00;80.60;;;;;;5108096;28;20048;-75
2023/06/24 07:09:35;;;;;;;3.38;3.08;;;27.60;77.40;;;;;;5107141;28;20019;-78
2023/06/24 07:12:02;;;;;;;4.40;3.75;;;28.40;75.50;;;;;;5088549;28;20375;-79
2023/06/24 07:14:27;;;;;;;6.07;3.10;;;28.70;72.30;;;;;;5107179;28;20027;-78
2023/06/24 07:16:53;;;;;;;15.75;3.42;;;29.10;71.80;;;;;;5106493;28;20039;-77
2023/06/24 07:19:19;;;;;;;4.57;3.83;;;29.30;69.50;;;;;;5079650;28;20016;-77
2023/06/24 07:21:44;;;;;;;6.90;3.28;;;28.90;68.10;;;;;;5081133;28;20050;-81
2023/06/24 07:24:10;;;;;;;12.90;3.17;;;28.70;69.00;;;;;;5105752;28;20471;-77
2023/06/24 07:26:35;;;;;;;3.63;2.90;;;29.00;69.70;;;;;;5107023;28;20043;-76
2023/06/24 07:29:02;;;;;;;3.10;2.90;;;29.40;68.10;;;;;;5088856;28;20023;-78
2023/06/24 07:31:27;;;;;;;5.93;3.85;;;29.30;65.40;;;;;;5111764;28;20038;-77
2023/06/24 07:33:53;;;;;;;4.68;3.50;;;29.00;64.70;;;;;;5110854;28;20333;-82
2023/06/24 07:36:19;;;;;;;4.07;3.60;;;28.10;65.70;;;;;;5112986;28;20364;-79
2023/06/24 07:38:45;;;;;;;7.60;4.45;;;27.10;68.70;;;;;;5097392;28;20047;-79
2023/06/24 07:41:10;;;;;;;5.20;4.35;;;25.70;72.00;;;;;;5081042;28;20024;-82
2023/06/24 07:43:36;;;;;;;6.35;4.18;;;25.30;72.40;;;;;;5075623;28;20528;-80
2023/06/24 07:46:02;;;;;;;4.82;3.72;;;25.40;73.40;;;;;;5092142;28;20071;-78
2023/06/24 07:48:27;;;;;;;5.97;4.47;;;25.50;74.00;;;;;;5092517;28;20424;-81
2023/06/24 07:50:53;;;;;;;5.35;4.00;;;26.00;73.40;;;;;;5074740;28;20024;-80
2023/06/24 07:53:19;;;;;;;6.05;4.95;;;25.40;72.50;;;;;;5093325;28;20504;-80
2023/06/24 07:55:44;;;;;;;5.28;4.15;;;26.20;72.50;;;;;;5094802;28;20062;-80
2023/06/24 07:58:10;;;;;;;4.57;4.13;;;26.80;70.40;;;;;;5091476;28;20031;-78
2023/06/24 08:00:36;;;;;;;5.10;3.80;;;27.20;69.40;;;;;;5103730;28;20023;-80
2023/06/24 08:03:02;;;;;;;14.50;4.63;;;27.50;71.30;;;;;;5103651;28;20498;-77
2023/06/24 08:05:28;;;;;;;5.60;3.92;;;28.30;70.10;;;;;;5103540;28;20034;-78
2023/06/24 08:07:53;;;;;;;4.75;3.75;;;28.40;67.60;;;;;;5092365;28;20208;-76
2023/06/24 08:10:19;;;;;;;4.32;3.42;;;28.50;66.10;;;;;;5093155;28;20012;-78
2023/06/24 08:12:45;;;;;;;5.25;4.32;;;29.20;65.80;;;;;;5114081;28;20024;-78
2023/06/24 08:15:10;;;;;;;5.47;4.00;;;28.90;64.10;;;;;;5091611;28;20035;-78
2023/06/24 08:17:36;;;;;;;7.40;3.47;;;28.50;65.20;;;;;;5112586;28;20047;-77
2023/06/24 08:20:04;;;;;;;4.63;4.13;;;27.10;68.70;;;;;;5088320;28;20145;-84
2023/06/24 08:22:29;;;;;;;4.57;4.15;;;26.90;68.00;;;;;;5085548;28;20339;-80
2023/06/24 08:24:55;;;;;;;4.88;4.38;;;26.50;68.30;;;;;;5113535;28;20023;-81
2023/06/24 08:27:20;;;;;;;5.18;3.70;;;26.40;70.40;;;;;;5112250;28;20434;-81
2023/06/24 08:29:46;;;;;;;5.18;3.95;;;26.90;71.10;;;;;;5112485;28;20031;-82
2023/06/24 08:32:12;;;;;;;10.98;4.80;;;27.00;69.10;;;;;;5108709;28;20566;-81
2023/06/24 08:34:37;;;;;;;5.97;4.72;;;27.20;68.40;;;;;;5088177;28;20468;-81
2023/06/24 08:37:03;;;;;;;5.30;4.05;;;27.30;70.00;;;;;;5090427;28;20034;-80
2023/06/24 08:39:29;;;;;;;4.38;3.92;;;27.80;67.50;;;;;;5070426;28;20023;-78
2023/06/24 08:41:55;;;;;;;4.57;4.05;;;27.80;66.90;;;;;;5090320;28;20028;-81
2023/06/24 08:44:20;;;;;;;4.03;3.65;;;27.20;67.90;;;;;;5089546;28;20115;-81
2023/06/24 08:46:47;;;;;;;8.90;4.45;;;26.40;68.70;;;;;;5090931;28;20024;-82
2023/06/24 08:49:22;;;;;;;5.22;4.30;;;26.50;69.60;;;;;;5073271;28;20028;-79
2023/06/24 08:51:54;;;;;;;4.30;3.90;;;26.30;69.80;;;;;;5090027;28;20027;-80
2023/06/24 08:54:21;;;;;;;5.60;4.03;;;26.40;71.70;;;;;;5111979;28;20027;-78
2023/06/24 08:56:47;;;;;;;4.93;4.10;;;26.50;67.80;;;;;;5109707;28;20023;-79
2023/06/24 08:59:12;;;;;;;5.05;3.80;;;26.80;68.20;;;;;;5102653;28;20032;-81
2023/06/24 09:01:38;;;;;;;4.82;3.80;;;27.10;68.70;;;;;;5089821;28;20126;-80
2023/06/24 09:04:04;;;;;;;6.32;4.57;;;27.60;67.40;;;;;;5090373;28;20054;-78
2023/06/24 09:06:31;;;;;;;5.15;3.50;;;28.10;66.20;;;;;;5090640;28;20065;-77
2023/06/24 09:08:57;;;;;;;4.60;3.55;;;27.90;66.80;;;;;;5071350;28;20020;-77
2023/06/24 09:11:27;;;;;;;4.40;4.00;;;27.80;65.60;;;;;;5090522;28;20476;-80
2023/06/24 09:14:00;;;;;;;4.05;3.65;;;26.80;66.90;;;;;;5069659;28;20032;-78
2023/06/24 09:16:28;;;;;;;5.95;3.55;;;27.20;68.30;;;;;;5095731;28;20032;-79
2023/06/24 09:18:54;;;;;;;3.90;3.47;;;27.20;69.60;;;;;;5094535;28;20020;-78
2023/06/24 09:21:26;;;;;;;4.60;3.92;;;27.50;68.50;;;;;;5089851;28;20369;-79
2023/06/24 09:23:53;;;;;;;5.60;4.22;;;27.60;68.00;;;;;;5089360;28;20055;-78
2023/06/24 09:26:19;;;;;;;6.13;4.20;;;27.10;66.30;;;;;;5088965;28;20026;-78
2023/06/24 09:28:49;;;;;;;5.60;4.03;;;26.90;68.50;;;;;;5101203;28;20023;-79
2023/06/24 09:31:15;;;;;;;4.88;3.15;;;27.00;67.00;;;;;;5088989;28;20019;-78
2023/06/24 09:33:40;;;;;;;4.43;3.63;;;27.50;66.90;;;;;;5095172;28;20095;-77
2023/06/24 09:36:06;;;;;;;5.85;3.55;;;27.70;65.70;;;;;;5079820;28;20044;-76
2023/06/24 09:38:36;;;;;;;3.22;2.97;;;28.10;66.30;;;;;;5081844;28;20024;-76
2023/06/24 09:41:04;;;;;;;3.20;2.90;;;27.80;65.80;;;;;;5090327;28;20087;-76
2023/06/24 09:43:30;;;;;;;3.65;3.35;;;28.30;65.70;;;;;;5108856;28;20380;-77
2023/06/24 09:45:57;;;;;;;4.97;3.15;;;28.50;63.50;;;;;;5089941;28;20085;-77
2023/06/24 09:48:23;;;;;;;5.43;3.80;;;28.60;62.90;;;;;;5109146;28;20549;-79
2023/06/24 09:50:48;;;;;;;3.45;3.20;;;27.80;68.20;;;;;;5108311;28;20031;-78
2023/06/24 09:53:17;;;;;;;4.90;3.72;;;27.90;66.50;;;;;;5109100;28;20027;-80
2023/06/24 09:55:46;;;;;;;4.78;3.08;;;27.70;66.00;;;;;;5091899;28;20030;-79
2023/06/24 09:58:12;;;;;;;7.00;3.13;;;27.80;65.10;;;;;;5091689;28;20114;-80
2023/06/24 10:00:37;;;;;;;5.38;3.65;;;27.90;65.00;;;;;;5083572;28;20107;-79
2023/06/24 10:03:03;;;;;;;4.30;3.08;;;28.10;66.00;;;;;;5087444;28;20138;-77
2023/06/24 10:05:29;;;;;;;3.45;3.20;;;28.20;64.90;;;;;;5086658;28;20028;-77
2023/06/24 10:07:55;;;;;;;5.70;3.22;;;28.20;63.70;;;;;;5086889;28;20082;-77
2023/06/24 10:10:20;;;;;;;5.32;3.45;;;27.60;65.30;;;;;;5067873;28;20457;-80
2023/06/24 10:12:46;;;;;;;4.35;3.50;;;27.20;66.70;;;;;;5087200;28;20043;-81
2023/06/24 10:15:12;;;;;;;5.65;3.13;;;27.30;67.10;;;;;;5090219;28;20030;-76
2023/06/24 10:17:38;;;;;;;4.95;3.55;;;27.40;66.90;;;;;;5106682;28;20067;-73
2023/06/24 10:20:05;;;;;;;3.80;3.40;;;27.80;66.40;;;;;;5098054;28;20096;-73
2023/06/24 10:22:31;;;;;;;3.83;3.42;;;28.40;66.80;;;;;;5088742;28;20262;-73
2023/06/24 10:25:01;;;;;;;6.95;3.90;;;28.20;64.40;;;;;;5073309;28;20071;-73
2023/06/24 10:27:31;;;;;;;3.15;2.83;;;28.70;64.50;;;;;;5100907;28;20262;-73
2023/06/24 10:30:02;;;;;;;3.60;3.30;;;29.00;66.40;;;;;;5087695;28;20020;-74
2023/06/24 10:32:41;;;;;;;6.25;3.33;;;29.10;67.10;;;;;;5097283;28;20030;-73
2023/06/24 10:35:07;;;;;;;3.58;3.00;;;29.30;62.90;;;;;;5092660;28;20028;-73
2023/06/24 10:37:33;;;;;;;3.53;3.17;;;29.70;63.40;;;;;;5078284;28;20055;-73
2023/06/24 10:40:00;;;;;;;2.65;2.45;;;30.00;61.70;;;;;;5095609;28;20026;-73
2023/06/24 10:42:34;;;;;;;3.65;3.08;;;30.10;63.30;;;;;;5108078;28;20020;-73
2023/06/24 10:45:16;;;;;;;4.78;2.97;;;30.10;62.50;;;;;;5099229;28;20016;-73
2023/06/24 10:47:47;;;;;;;4.07;3.60;;;30.20;62.20;;;;;;5105827;28;20584;-74
2023/06/24 10:50:15;;;;;;;4.20;3.15;;;30.70;62.40;;;;;;5106788;28;20055;-73
2023/06/24 10:52:43;;;;;;;3.40;3.10;;;30.20;60.80;;;;;;5104611;28;20023;-75
2023/06/24 10:55:09;;;;;;;3.37;3.07;;;29.60;64.30;;;;;;5105393;28;20035;-73
2023/06/24 10:57:35;;;;;;;4.65;3.15;;;29.40;63.20;;;;;;5105920;28;20054;-73
2023/06/24 11:00:03;;;;;;;3.33;2.97;;;29.70;61.80;;;;;;5107627;28;20110;-73
2023/06/24 11:02:29;;;;;;;3.78;2.90;;;30.40;60.60;;;;;;5088725;28;20031;-72
2023/06/24 11:04:54;;;;;;;5.82;3.08;;;29.80;61.60;;;;;;5089183;28;20400;-73
2023/06/24 11:07:22;;;;;;;3.88;3.58;;;29.40;61.80;;;;;;5068433;28;20139;-73
2023/06/24 11:09:50;;;;;;;2.72;2.53;;;29.90;61.00;;;;;;5087028;28;20027;-74
2023/06/24 11:12:16;;;;;;;3.45;3.05;;;29.00;60.40;;;;;;5087132;28;20024;-75
2023/06/24 11:14:41;;;;;;;4.03;3.65;;;27.60;64.80;;;;;;5086415;28;20103;-76
2023/06/24 11:17:07;;;;;;;3.67;3.38;;;28.20;64.70;;;;;;5068018;28;20496;-76
2023/06/24 11:19:34;;;;;;;4.72;2.90;;;29.00;63.10;;;;;;5075993;28;20523;-74
2023/06/24 11:22:03;;;;;;;2.90;2.70;;;29.40;64.00;;;;;;5106626;28;20519;-73
2023/06/24 11:24:29;;;;;;;4.00;2.95;;;29.70;62.40;;;;;;5088993;28;20119;-73
2023/06/24 11:26:55;;;;;;;3.67;2.30;;;30.20;58.60;;;;;;5086003;28;20032;-73
2023/06/24 11:29:21;;;;;;;4.40;3.35;;;28.80;62.70;;;;;;5087249;28;20028;-75
2023/06/24 11:31:47;;;;;;;2.78;2.58;;;28.50;61.00;;;;;;5105845;28;20028;-75
2023/06/24 11:34:13;;;;;;;2.88;2.67;;;29.30;60.70;;;;;;5105604;28;20043;-73
2023/06/24 11:36:39;;;;;;;3.80;3.28;;;29.80;60.90;;;;;;5106540;28;20425;-74
2023/06/24 11:39:04;;;;;;;3.50;3.20;;;29.80;60.10;;;;;;5104734;28;20503;-75
2023/06/24 11:41:30;;;;;;;4.22;3.38;;;29.30;62.30;;;;;;5105782;28;20519;-74
2023/06/24 11:43:58;;;;;;;2.88;2.60;;;29.60;61.90;;;;;;5086488;28;20028;-73
2023/06/24 11:46:28;;;;;;;2.75;2.55;;;30.20;61.80;;;;;;5086717;28;20396;-73
2023/06/24 11:49:07;;;;;;;3.25;2.78;;;30.90;60.60;;;;;;5093793;28;20028;-73
2023/06/24 11:51:34;;;;;;;2.95;2.65;;;31.80;56.60;;;;;;5064398;28;20024;-74
2023/06/24 11:54:03;;;;;;;2.65;2.45;;;31.70;57.50;;;;;;5065921;28;20031;-74
2023/06/24 11:56:38;;;;;;;3.30;2.75;;;31.50;59.30;;;;;;5091588;28;20028;-74
2023/06/24 11:59:05;;;;;;;3.72;2.95;;;31.80;59.10;;;;;;5104104;28;20042;-73
2023/06/24 12:01:36;;;;;;;3.35;3.05;;;31.40;58.30;;;;;;5102096;28;20044;-74
2023/06/24 12:04:10;;;;;;;2.88;2.67;;;32.10;58.00;;;;;;5088247;28;20662;-73
2023/06/24 12:06:36;;;;;;;3.45;2.40;;;32.70;57.00;;;;;;5081444;28;20047;-74
2023/06/24 12:09:02;;;;;;;3.20;3.00;;;32.50;58.80;;;;;;5081769;28;20028;-72
2023/06/24 12:11:27;;;;;;;3.40;3.00;;;31.70;56.70;;;;;;5081710;28;20032;-73
2023/06/24 12:13:53;;;;;;;3.40;3.10;;;31.90;55.80;;;;;;5072506;28;20025;-73
2023/06/24 12:16:18;;;;;;;3.13;2.83;;;32.70;55.00;;;;;;5069085;28;20105;-72
2023/06/24 12:18:44;;;;;;;2.70;2.50;;;31.60;56.00;;;;;;5067505;28;20021;-73
2023/06/24 12:21:10;;;;;;;3.05;2.80;;;31.50;57.60;;;;;;5066392;28;20021;-72
2023/06/24 12:23:36;;;;;;;3.90;3.15;;;30.40;58.50;;;;;;5066353;28;20062;-73
2023/06/24 12:26:01;;;;;;;2.65;2.45;;;30.50;58.60;;;;;;5065756;28;20028;-73
2023/06/24 12:28:27;;;;;;;2.78;2.20;;;30.60;57.30;;;;;;5087950;28;20024;-73
2023/06/24 12:30:53;;;;;;;2.95;2.65;;;31.20;57.50;;;;;;5081654;28;20477;-73
2023/06/24 12:33:20;;;;;;;3.17;2.95;;;32.50;55.20;;;;;;5066185;28;20559;-73
2023/06/24 12:35:46;;;;;;;2.72;2.53;;;33.50;53.30;;;;;;5077389;28;20321;-72
2023/06/24 12:38:12;;;;;;;7.80;3.13;;;33.50;55.20;;;;;;5073971;28;20032;-72
2023/06/24 12:40:37;;;;;;;2.65;2.45;;;33.70;55.10;;;;;;5086934;28;20028;-72
2023/06/24 12:43:04;;;;;;;3.05;2.28;;;33.00;56.00;;;;;;5077547;28;20425;-73
2023/06/24 12:45:30;;;;;;;2.35;2.15;;;33.80;53.40;;;;;;5064929;28;20033;-73